createdAt,value
2022-09-23T00:00:48.698Z,77.13
2022-09-23T00:02:52.056Z,77.21
2022-09-23T00:04:53.409Z,76.93
2022-09-23T00:06:54.726Z,77.10
2022-09-23T00:08:56.038Z,77.35
2022-09-23T00:10:57.350Z,77.25
2022-09-23T00:12:58.755Z,77.18
2022-09-23T00:15:00.093Z,77.25
2022-09-23T00:17:01.473Z,77.16
2022-09-23T00:19:02.786Z,76.73
2022-09-23T00:21:04.358Z,77.10
2022-09-23T00:23:05.655Z,77.30
2022-09-23T00:25:06.987Z,77.38
2022-09-23T00:27:08.343Z,77.02
2022-09-23T00:29:09.631Z,77.08
2022-09-23T00:31:10.952Z,77.19
2022-09-23T00:33:12.292Z,77.36
2022-09-23T00:35:13.584Z,77.35
2022-09-23T00:37:14.863Z,77.56
2022-09-23T00:39:16.195Z,77.29
2022-09-23T00:41:17.482Z,77.48
2022-09-23T00:43:18.923Z,77.91
2022-09-23T00:45:20.246Z,77.47
2022-09-23T00:47:21.711Z,77.47
2022-09-23T00:49:23.327Z,77.03
2022-09-23T00:51:24.631Z,77.04
2022-09-23T00:53:26.711Z,77.18
2022-09-23T00:55:28.005Z,77.36
2022-09-23T00:57:29.282Z,77.83
2022-09-23T00:59:30.599Z,77.79
2022-09-23T01:01:32.007Z,78.02
2022-09-23T01:03:33.347Z,78.32
2022-09-23T01:05:34.672Z,78.08
2022-09-23T01:07:35.939Z,77.89
2022-09-23T01:09:37.262Z,77.75
2022-09-23T01:11:38.582Z,77.85
2022-09-23T01:13:39.850Z,77.85
2022-09-23T01:15:41.160Z,77.87
2022-09-23T01:17:42.430Z,78.09
2022-09-23T01:19:43.718Z,78.09
2022-09-23T01:21:45.193Z,77.82
2022-09-23T01:23:46.463Z,77.51
2022-09-23T01:25:47.720Z,77.66
2022-09-23T01:27:49.021Z,77.86
2022-09-23T01:29:50.290Z,77.71
2022-09-23T01:31:51.554Z,77.75
2022-09-23T01:33:52.940Z,77.66
2022-09-23T01:35:54.203Z,76.97
2022-09-23T01:37:55.657Z,77.79
2022-09-23T01:39:56.995Z,77.34
2022-09-23T01:41:58.265Z,77.39
2022-09-23T01:43:59.534Z,77.51
2022-09-23T01:46:00.819Z,77.22
2022-09-23T01:48:02.167Z,77.27
2022-09-23T01:50:03.512Z,77.03
2022-09-23T01:52:05.447Z,77.44
2022-09-23T01:54:06.734Z,77.56
2022-09-23T01:56:08.063Z,76.97
2022-09-23T01:58:09.402Z,77.21
2022-09-23T02:00:10.683Z,77.01
2022-09-23T02:02:12.025Z,76.57
2022-09-23T02:04:13.334Z,77.15
2022-09-23T02:06:14.679Z,76.61
2022-09-23T02:08:16.007Z,76.88
2022-09-23T02:10:17.279Z,76.77
2022-09-23T02:12:18.574Z,77.44
2022-09-23T02:14:19.899Z,77.14
2022-09-23T02:16:22.110Z,77.06
2022-09-23T02:18:23.480Z,77.18
2022-09-23T02:20:24.795Z,76.67
2022-09-23T02:22:26.098Z,77.23
2022-09-23T02:24:27.372Z,77.32
2022-09-23T02:26:29.539Z,77.26
2022-09-23T02:28:31.415Z,77.13
2022-09-23T02:30:32.701Z,77.53
2022-09-23T02:32:34.118Z,77.85
2022-09-23T02:34:35.399Z,77.26
2022-09-23T02:36:36.805Z,76.90
2022-09-23T02:38:38.127Z,77.06
2022-09-23T02:40:39.494Z,76.59
2022-09-23T02:42:40.765Z,77.20
2022-09-23T02:44:42.617Z,76.37
2022-09-23T02:46:43.974Z,77.16
2022-09-23T02:48:45.299Z,76.61
2022-09-23T02:50:47.762Z,76.92
2022-09-23T02:52:49.112Z,76.02
2022-09-23T02:54:50.382Z,75.58
2022-09-23T02:56:52.495Z,75.78
2022-09-23T02:58:54.155Z,75.75
2022-09-23T03:00:55.466Z,76.57
2022-09-23T03:02:56.770Z,76.11
2022-09-23T03:04:58.640Z,76.03
2022-09-23T03:06:59.918Z,76.04
2022-09-23T03:09:01.254Z,76.07
2022-09-23T03:11:04.304Z,75.92
2022-09-23T03:13:05.935Z,75.63
2022-09-23T03:15:07.205Z,75.62
2022-09-23T03:17:09.575Z,75.68
2022-09-23T03:19:12.333Z,75.61
2022-09-23T03:21:13.623Z,75.30
2022-09-23T03:23:15.269Z,75.48
2022-09-23T03:25:16.547Z,75.48
2022-09-23T03:27:18.708Z,75.48
2022-09-23T03:29:20.138Z,75.48
2022-09-23T03:31:21.473Z,75.25
2022-09-23T03:33:26.783Z,75.40
2022-09-23T03:35:29.742Z,75.06
2022-09-23T03:37:31.442Z,74.94
2022-09-23T03:39:32.723Z,75.18
2022-09-23T03:41:34.056Z,75.21
2022-09-23T03:43:38.854Z,75.21
2022-09-23T03:45:41.365Z,74.83
2022-09-23T03:47:42.768Z,75.39
2022-09-23T03:49:44.044Z,74.95
2022-09-23T03:51:45.318Z,74.92
2022-09-23T03:53:46.603Z,75.31
2022-09-23T03:55:48.303Z,75.22
2022-09-23T03:57:49.620Z,74.99
2022-09-23T03:59:50.907Z,75.20
2022-09-23T04:01:52.294Z,74.87
2022-09-23T04:03:53.646Z,74.88
2022-09-23T04:05:54.980Z,74.51
2022-09-23T04:07:56.748Z,74.40
2022-09-23T04:09:58.051Z,74.25
2022-09-23T04:11:59.405Z,74.38
2022-09-23T04:14:00.684Z,74.24
2022-09-23T04:16:02.016Z,74.15
2022-09-23T04:18:03.337Z,73.86
2022-09-23T04:20:04.652Z,73.81
2022-09-23T04:22:05.958Z,74.14
2022-09-23T04:24:07.293Z,74.06
2022-09-23T04:26:08.613Z,73.85
2022-09-23T04:28:09.890Z,74.03
2022-09-23T04:30:11.206Z,74.03
2022-09-23T04:32:12.498Z,74.06
2022-09-23T04:34:15.819Z,74.14
2022-09-23T04:36:17.114Z,73.99
2022-09-23T04:38:18.426Z,74.25
2022-09-23T04:40:19.729Z,74.51
2022-09-23T04:42:21.042Z,74.08
2022-09-23T04:44:22.322Z,74.06
2022-09-23T04:46:23.682Z,74.28
2022-09-23T04:48:24.966Z,73.89
2022-09-23T04:50:26.237Z,73.97
2022-09-23T04:52:27.535Z,74.18
2022-09-23T04:54:29.483Z,73.92
2022-09-23T04:56:33.840Z,74.00
2022-09-23T04:58:35.330Z,74.07
2022-09-23T05:00:36.680Z,74.07
2022-09-23T05:02:39.421Z,73.82
2022-09-23T05:04:41.147Z,73.87
2022-09-23T05:06:45.191Z,73.85
2022-09-23T05:08:46.583Z,73.95
2022-09-23T05:10:48.150Z,73.78
2022-09-23T05:12:52.460Z,73.67
2022-09-23T05:14:56.574Z,73.67
2022-09-23T05:16:57.838Z,73.81
2022-09-23T05:18:59.656Z,74.06
2022-09-23T05:21:01.049Z,74.06
2022-09-23T05:23:02.307Z,73.95
2022-09-23T05:25:03.618Z,74.10
2022-09-23T05:27:07.515Z,73.86
2022-09-23T05:29:08.835Z,73.60
2022-09-23T05:31:15.818Z,73.72
2022-09-23T05:33:20.072Z,73.80
2022-09-23T05:35:21.601Z,73.83
2022-09-23T05:37:23.315Z,73.69
2022-09-23T05:39:24.609Z,73.68
2022-09-23T05:41:25.935Z,73.63
2022-09-23T05:43:27.197Z,73.41
2022-09-23T05:45:28.479Z,73.51
2022-09-23T05:47:29.831Z,73.46
2022-09-23T05:49:55.340Z,73.47
2022-09-23T05:51:52.395Z,73.38
2022-09-23T05:53:53.675Z,73.40
2022-09-23T05:55:54.995Z,73.45
2022-09-23T05:57:56.303Z,73.31
2022-09-23T05:59:57.606Z,73.27
2022-09-23T06:01:59.593Z,73.33
2022-09-23T06:04:01.082Z,73.63
2022-09-23T06:06:02.394Z,73.30
2022-09-23T06:08:03.691Z,73.46
2022-09-23T06:10:05.004Z,73.25
2022-09-23T06:12:06.512Z,73.18
2022-09-23T06:14:09.650Z,73.42
2022-09-23T06:16:10.981Z,73.04
2022-09-23T06:18:12.474Z,73.23
2022-09-23T06:20:13.751Z,73.49
2022-09-23T06:22:16.999Z,73.08
2022-09-23T06:24:22.011Z,73.53
2022-09-23T06:26:25.186Z,73.43
2022-09-23T06:28:26.490Z,73.31
2022-09-23T06:30:27.889Z,73.39
2022-09-23T06:32:29.204Z,73.08
2022-09-23T06:34:32.936Z,73.21
2022-09-23T06:36:43.752Z,73.37
2022-09-23T06:38:49.260Z,73.44
2022-09-23T06:40:50.930Z,73.33
2022-09-23T06:42:52.505Z,73.50
2022-09-23T06:44:53.829Z,73.36
2022-09-23T06:46:55.195Z,73.46
2022-09-23T06:48:56.555Z,73.65
2022-09-23T06:50:57.955Z,73.48
2022-09-23T06:52:59.419Z,73.53
2022-09-23T06:55:01.015Z,73.46
2022-09-23T06:57:02.290Z,73.50
2022-09-23T06:59:03.791Z,73.92
2022-09-23T07:01:05.079Z,73.67
2022-09-23T07:03:06.422Z,73.73
2022-09-23T07:05:07.728Z,73.72
2022-09-23T07:07:11.510Z,73.89
2022-09-23T07:09:12.806Z,74.01
2022-09-23T07:11:14.102Z,73.63
2022-09-23T07:13:16.396Z,73.71
2022-09-23T07:15:17.800Z,73.65
2022-09-23T07:17:19.111Z,73.29
2022-09-23T07:19:20.458Z,73.37
2022-09-23T07:21:21.713Z,73.70
2022-09-23T07:23:22.973Z,73.33
2022-09-23T07:25:24.266Z,73.28
2022-09-23T07:27:25.850Z,73.11
2022-09-23T07:29:27.125Z,73.18
2022-09-23T07:31:38.357Z,73.18
2022-09-23T07:33:44.212Z,73.07
2022-09-23T07:35:45.646Z,73.24
2022-09-23T07:37:47.096Z,73.25
2022-09-23T07:39:48.592Z,73.28
2022-09-23T07:41:50.755Z,73.49
2022-09-23T07:43:55.321Z,73.08
2022-09-23T07:45:56.972Z,73.45
2022-09-23T07:47:58.267Z,73.54
2022-09-23T07:49:59.564Z,73.41
2022-09-23T07:52:00.883Z,73.59
2022-09-23T07:54:02.174Z,73.11
2022-09-23T07:56:06.538Z,73.57
2022-09-23T07:58:07.904Z,73.49
2022-09-23T08:00:09.353Z,73.31
2022-09-23T08:02:10.699Z,73.42
2022-09-23T08:04:11.979Z,73.51
2022-09-23T08:06:13.300Z,73.46
2022-09-23T08:08:14.602Z,73.67
2022-09-23T08:10:21.031Z,73.69
2022-09-23T08:12:22.359Z,73.79
2022-09-23T08:14:23.734Z,73.96
2022-09-23T08:16:25.025Z,73.59
2022-09-23T08:18:26.392Z,73.54
2022-09-23T08:20:47.357Z,73.62
2022-09-23T08:22:50.456Z,73.89
2022-09-23T08:24:52.840Z,74.15
2022-09-23T08:26:55.844Z,73.77
2022-09-23T08:28:57.117Z,73.92
2022-09-23T08:30:58.458Z,74.05
2022-09-23T08:32:59.972Z,73.88
2022-09-23T08:35:01.243Z,74.03
2022-09-23T08:37:02.667Z,74.04
2022-09-23T08:39:03.939Z,74.05
2022-09-23T08:41:05.567Z,74.33
2022-09-23T08:43:07.169Z,74.28
2022-09-23T08:45:08.618Z,74.16
2022-09-23T08:47:11.949Z,74.18
2022-09-23T08:49:13.940Z,74.32
2022-09-23T08:51:16.011Z,74.30
2022-09-23T08:53:17.308Z,74.65
2022-09-23T08:55:19.560Z,74.54
2022-09-23T08:57:20.834Z,74.23
2022-09-23T08:59:22.218Z,74.19
2022-09-23T09:01:23.678Z,74.57
2022-09-23T09:03:25.008Z,74.57
2022-09-23T09:05:26.855Z,74.73
2022-09-23T09:07:36.792Z,75.23
2022-09-23T09:09:39.214Z,75.04
2022-09-23T09:11:44.365Z,74.85
2022-09-23T09:13:48.916Z,74.71
2022-09-23T09:15:50.341Z,74.75
2022-09-23T09:17:51.658Z,74.60
2022-09-23T09:19:52.996Z,74.50
2022-09-23T09:21:55.538Z,74.65
2022-09-23T09:23:56.940Z,74.38
2022-09-23T09:25:58.299Z,74.72
2022-09-23T09:27:59.598Z,74.67
2022-09-23T09:30:01.396Z,74.66
2022-09-23T09:32:03.049Z,74.56
2022-09-23T09:34:04.545Z,74.44
2022-09-23T09:36:09.108Z,74.69
2022-09-23T09:38:10.874Z,74.67
2022-09-23T09:40:12.278Z,74.68
2022-09-23T09:42:13.670Z,74.48
2022-09-23T09:44:15.875Z,74.55
2022-09-23T09:46:17.216Z,74.45
2022-09-23T09:48:20.510Z,74.62
2022-09-23T09:50:22.057Z,74.86
2022-09-23T09:52:23.468Z,74.91
2022-09-23T09:54:26.763Z,74.71
2022-09-23T09:56:28.679Z,74.84
2022-09-23T09:58:30.108Z,74.68
2022-09-23T10:00:31.383Z,74.90
2022-09-23T10:02:32.705Z,74.93
2022-09-23T10:04:34.073Z,75.01
2022-09-23T10:06:35.785Z,74.99
2022-09-23T10:08:37.075Z,74.94
2022-09-23T10:10:38.350Z,74.72
2022-09-23T10:12:39.663Z,74.95
2022-09-23T10:14:40.936Z,75.09
2022-09-23T10:16:42.417Z,74.85
2022-09-23T10:18:43.992Z,75.38
2022-09-23T10:20:46.208Z,75.06
2022-09-23T10:22:47.640Z,75.21
2022-09-23T10:24:48.919Z,74.76
2022-09-23T10:26:50.510Z,74.53
2022-09-23T10:28:51.891Z,74.70
2022-09-23T10:30:53.238Z,74.28
2022-09-23T10:32:55.033Z,74.49
2022-09-23T10:34:57.063Z,74.40
2022-09-23T10:36:58.361Z,74.21
2022-09-23T10:39:19.642Z,74.30
2022-09-23T10:41:39.500Z,73.91
2022-09-23T10:43:59.057Z,74.13
2022-09-23T10:46:18.933Z,73.76
2022-09-23T10:48:20.409Z,73.98
2022-09-23T10:50:23.135Z,74.20
2022-09-23T10:52:24.399Z,73.99
2022-09-23T10:54:25.953Z,74.43
2022-09-23T10:56:27.272Z,74.19
2022-09-23T10:58:28.531Z,74.33
2022-09-23T11:00:29.839Z,74.40
2022-09-23T11:02:31.294Z,74.50
2022-09-23T11:04:32.689Z,74.32
2022-09-23T11:06:34.038Z,74.64
2022-09-23T11:08:36.331Z,74.53
2022-09-23T11:10:46.303Z,74.51
2022-09-23T11:12:48.942Z,74.45
2022-09-23T11:14:51.526Z,74.51
2022-09-23T11:16:52.874Z,74.57
2022-09-23T11:18:54.208Z,74.45
2022-09-23T11:20:55.488Z,74.50
2022-09-23T11:22:57.233Z,74.74
2022-09-23T11:25:00.178Z,74.88
2022-09-23T11:27:03.844Z,74.74
2022-09-23T11:29:05.194Z,74.70
2022-09-23T11:31:06.702Z,74.53
2022-09-23T11:33:08.166Z,74.20
2022-09-23T11:35:09.439Z,74.27
2022-09-23T11:37:13.448Z,74.49
2022-09-23T11:39:14.764Z,74.53
2022-09-23T11:41:17.512Z,74.69
2022-09-23T11:43:18.822Z,74.48
2022-09-23T11:45:20.106Z,74.75
2022-09-23T11:47:21.767Z,74.68
2022-09-23T11:49:23.050Z,74.66
2022-09-23T11:51:24.695Z,74.53
2022-09-23T11:53:25.983Z,74.46
2022-09-23T11:55:27.525Z,74.50
2022-09-23T11:57:34.505Z,74.53
2022-09-23T11:59:42.941Z,74.73
2022-09-23T12:01:45.688Z,74.54
2022-09-23T12:03:48.176Z,74.35
2022-09-23T12:05:49.691Z,74.74
2022-09-23T12:07:54.066Z,74.41
2022-09-23T12:09:58.527Z,74.29
2022-09-23T12:12:00.294Z,74.19
2022-09-23T12:14:01.741Z,74.10
2022-09-23T12:16:03.043Z,73.64
2022-09-23T12:18:04.310Z,73.67
2022-09-23T12:20:05.667Z,73.42
2022-09-23T12:22:07.895Z,72.89
2022-09-23T12:24:09.214Z,72.68
2022-09-23T12:26:10.600Z,72.86
2022-09-23T12:28:11.876Z,72.92
2022-09-23T12:30:13.135Z,72.82
2022-09-23T12:32:14.436Z,72.63
2022-09-23T12:34:15.698Z,73.22
2022-09-23T12:36:17.656Z,72.92
2022-09-23T12:38:19.379Z,72.74
2022-09-23T12:40:21.494Z,73.05
2022-09-23T12:42:22.790Z,73.22
2022-09-23T12:44:24.066Z,73.24
2022-09-23T12:46:28.595Z,73.46
2022-09-23T12:48:29.847Z,73.54
2022-09-23T12:50:31.123Z,73.32
2022-09-23T12:52:32.407Z,73.54
2022-09-23T12:54:33.722Z,72.94
2022-09-23T12:56:35.004Z,72.15
2022-09-23T12:58:36.269Z,71.97
2022-09-23T13:00:37.539Z,71.99
2022-09-23T13:02:38.846Z,72.15
2022-09-23T13:04:59.000Z,72.30
2022-09-23T13:07:00.269Z,72.31
2022-09-23T13:09:02.631Z,72.34
2022-09-23T13:11:03.935Z,72.52
2022-09-23T13:13:05.232Z,72.35
2022-09-23T13:15:06.634Z,72.04
2022-09-23T13:17:07.966Z,72.61
2022-09-23T13:19:09.262Z,72.07
2022-09-23T13:21:10.573Z,72.31
2022-09-23T13:23:12.619Z,72.75
2022-09-23T13:25:13.886Z,72.02
2022-09-23T13:27:15.171Z,72.60
2022-09-23T13:29:16.462Z,72.01
2022-09-23T13:31:17.807Z,72.47
2022-09-23T13:33:19.179Z,72.07
2022-09-23T13:35:20.486Z,71.48
2022-09-23T13:37:22.928Z,69.93
2022-09-23T13:39:24.616Z,69.73
2022-09-23T13:41:28.846Z,69.26
2022-09-23T13:43:31.823Z,69.19
2022-09-23T13:45:33.910Z,70.26
2022-09-23T13:47:35.246Z,71.29
2022-09-23T13:49:36.537Z,71.85
2022-09-23T13:51:37.889Z,71.96
2022-09-23T13:53:39.225Z,72.69
2022-09-23T13:55:41.328Z,72.93
2022-09-23T13:57:42.621Z,72.95
2022-09-23T13:59:43.895Z,72.82
2022-09-23T14:01:45.607Z,72.58
2022-09-23T14:03:47.091Z,72.41
2022-09-23T14:05:48.381Z,72.80
2022-09-23T14:07:49.657Z,72.84
2022-09-23T14:09:50.987Z,72.72
2022-09-23T14:11:52.299Z,72.47
2022-09-23T14:13:55.050Z,72.38
2022-09-23T14:15:58.283Z,72.39
2022-09-23T14:17:59.643Z,72.81
2022-09-23T14:20:01.059Z,72.67
2022-09-23T14:22:02.389Z,72.66
2022-09-23T14:24:03.663Z,72.90
2022-09-23T14:26:04.935Z,73.46
2022-09-23T14:28:06.236Z,73.63
2022-09-23T14:30:07.731Z,73.43
2022-09-23T14:32:09.289Z,73.58
2022-09-23T14:34:10.655Z,73.57
2022-09-23T14:36:31.927Z,73.70
2022-09-23T14:38:51.332Z,73.50
2022-09-23T14:40:52.877Z,73.50
2022-09-23T14:42:54.542Z,72.83
2022-09-23T14:44:55.850Z,71.03
2022-09-23T14:46:57.147Z,70.62
2022-09-23T14:48:58.629Z,69.16
2022-09-23T14:50:59.903Z,69.28
2022-09-23T14:53:01.255Z,69.79
2022-09-23T14:55:02.515Z,69.75
2022-09-23T14:57:05.959Z,70.31
2022-09-23T14:59:07.318Z,70.76
2022-09-23T15:01:09.575Z,70.07
2022-09-23T15:03:10.968Z,69.14
2022-09-23T15:05:12.975Z,69.31
2022-09-23T15:07:14.810Z,69.23
2022-09-23T15:09:16.092Z,68.90
2022-09-23T15:11:17.363Z,68.65
2022-09-23T15:13:18.685Z,68.73
2022-09-23T15:15:19.945Z,69.55
2022-09-23T15:17:21.351Z,70.13
2022-09-23T15:19:22.673Z,68.97
2022-09-23T15:21:24.879Z,69.66
2022-09-23T15:23:28.322Z,68.86
2022-09-23T15:25:29.720Z,69.33
2022-09-23T15:27:31.162Z,70.07
2022-09-23T15:29:33.666Z,70.98
2022-09-23T15:31:34.960Z,70.31
2022-09-23T15:33:36.301Z,70.08
2022-09-23T15:35:37.615Z,70.55
2022-09-23T15:37:38.964Z,72.40
2022-09-23T15:39:40.379Z,70.37
2022-09-23T15:41:43.188Z,69.89
2022-09-23T15:43:44.586Z,69.26
2022-09-23T15:45:46.300Z,69.41
2022-09-23T15:47:47.664Z,70.56
2022-09-23T15:49:48.987Z,69.75
2022-09-23T15:51:52.193Z,70.55
2022-09-23T15:53:54.887Z,69.70
2022-09-23T15:55:58.503Z,69.15
2022-09-23T15:57:59.999Z,70.15
2022-09-23T16:00:01.718Z,70.13
2022-09-23T16:02:04.178Z,70.37
2022-09-23T16:04:05.937Z,70.76
2022-09-23T16:06:07.258Z,70.65
2022-09-23T16:08:09.455Z,70.58
2022-09-23T16:10:10.945Z,70.76
2022-09-23T16:12:12.246Z,70.49
2022-09-23T16:14:13.727Z,69.68
2022-09-23T16:16:15.121Z,70.41
2022-09-23T16:18:16.466Z,69.90
2022-09-23T16:20:17.983Z,69.50
2022-09-23T16:22:19.296Z,70.16
2022-09-23T16:24:27.311Z,70.00
2022-09-23T16:26:29.619Z,70.54
2022-09-23T16:28:30.964Z,67.95
2022-09-23T16:30:32.300Z,69.64
2022-09-23T16:32:33.587Z,70.49
2022-09-23T16:34:34.916Z,70.05
2022-09-23T16:36:36.334Z,70.38
2022-09-23T16:38:38.215Z,70.25
2022-09-23T16:40:42.404Z,70.71
2022-09-23T16:42:47.632Z,70.56
2022-09-23T16:44:48.931Z,70.07
2022-09-23T16:46:51.008Z,69.38
2022-09-23T16:48:53.098Z,69.77
2022-09-23T16:50:54.675Z,69.99
2022-09-23T16:52:56.285Z,69.82
2022-09-23T16:54:57.618Z,69.46
2022-09-23T16:56:59.103Z,70.06
2022-09-23T16:59:00.461Z,69.30
2022-09-23T17:01:20.627Z,69.13
2022-09-23T17:03:40.846Z,70.28
2022-09-23T17:05:46.625Z,69.99
2022-09-23T17:07:48.736Z,69.28
2022-09-23T17:09:50.677Z,68.06
2022-09-23T17:11:51.986Z,69.61
2022-09-23T17:13:53.434Z,69.81
2022-09-23T17:15:54.759Z,68.90
2022-09-23T17:17:56.122Z,68.83
2022-09-23T17:19:57.416Z,68.43
2022-09-23T17:21:58.712Z,68.40
2022-09-23T17:24:00.050Z,68.37
2022-09-23T17:26:01.340Z,68.76
2022-09-23T17:28:02.671Z,68.90
2022-09-23T17:30:05.288Z,69.53
2022-09-23T17:32:09.460Z,69.28
2022-09-23T17:34:11.652Z,69.41
2022-09-23T17:36:13.019Z,69.96
2022-09-23T17:38:14.298Z,70.53
2022-09-23T17:40:15.624Z,70.47
2022-09-23T17:42:18.205Z,70.79
2022-09-23T17:44:19.507Z,70.66
2022-09-23T17:46:20.871Z,69.53
2022-09-23T17:48:22.195Z,69.15
2022-09-23T17:50:23.476Z,67.92
2022-09-23T17:52:24.758Z,67.76
2022-09-23T17:54:26.147Z,67.39
2022-09-23T17:56:29.985Z,67.49
2022-09-23T17:58:31.398Z,67.93
2022-09-23T18:00:32.743Z,68.17
2022-09-23T18:02:34.080Z,68.19
2022-09-23T18:04:35.531Z,67.08
2022-09-23T18:06:37.038Z,67.94
2022-09-23T18:08:38.356Z,68.97
2022-09-23T18:10:39.674Z,69.32
2022-09-23T18:12:40.935Z,68.67
2022-09-23T18:14:42.256Z,68.98
2022-09-23T18:16:44.160Z,69.82
2022-09-23T18:18:45.550Z,70.17
2022-09-23T18:20:46.883Z,70.00
2022-09-23T18:22:48.828Z,69.43
2022-09-23T18:24:50.093Z,68.90
2022-09-23T18:26:54.644Z,69.14
2022-09-23T18:28:58.068Z,69.69
2022-09-23T18:31:01.664Z,69.81
2022-09-23T18:33:03.390Z,70.04
2022-09-23T18:35:04.804Z,70.17
2022-09-23T18:37:15.075Z,69.99
2022-09-23T18:39:17.403Z,70.09
2022-09-23T18:41:18.732Z,69.74
2022-09-23T18:43:24.543Z,69.63
2022-09-23T18:45:27.014Z,68.91
2022-09-23T18:47:46.929Z,69.00
2022-09-23T18:50:06.882Z,69.57
2022-09-23T18:52:08.196Z,69.76
2022-09-23T18:54:09.578Z,69.57
2022-09-23T18:56:10.942Z,69.87
2022-09-23T18:58:13.272Z,70.25
2022-09-23T19:00:14.591Z,69.89
2022-09-23T19:02:16.996Z,69.32
2022-09-23T19:04:18.351Z,69.11
2022-09-23T19:06:21.317Z,69.94
2022-09-23T19:08:22.987Z,69.54
2022-09-23T19:10:24.310Z,68.76
2022-09-23T19:12:25.663Z,69.08
2022-09-23T19:14:27.046Z,69.48
2022-09-23T19:16:28.678Z,69.15
2022-09-23T19:18:30.070Z,69.58
2022-09-23T19:20:31.490Z,69.48
2022-09-23T19:22:33.506Z,69.83
2022-09-23T19:24:34.827Z,69.99
2022-09-23T19:26:37.784Z,69.73
2022-09-23T19:28:39.062Z,69.84
2022-09-23T19:30:40.410Z,69.85
2022-09-23T19:32:42.589Z,70.17
2022-09-23T19:34:46.322Z,70.33
2022-09-23T19:36:47.745Z,70.35
2022-09-23T19:38:49.065Z,70.55
2022-09-23T19:40:52.096Z,69.52
2022-09-23T19:42:54.164Z,69.85
2022-09-23T19:44:55.439Z,69.74
2022-09-23T19:46:57.424Z,69.96
2022-09-23T19:48:59.157Z,70.40
2022-09-23T19:51:02.045Z,70.43
2022-09-23T19:53:04.807Z,69.79
2022-09-23T19:55:06.595Z,69.73
2022-09-23T19:57:09.632Z,70.15
2022-09-23T19:59:13.241Z,70.31
2022-09-23T20:01:17.814Z,69.91
2022-09-23T20:03:19.148Z,70.30
2022-09-23T20:05:20.539Z,70.42
2022-09-23T20:07:21.877Z,70.70
2022-09-23T20:09:23.206Z,69.67
2022-09-23T20:11:28.364Z,70.26
2022-09-23T20:13:31.439Z,70.48
2022-09-23T20:15:32.707Z,70.24
2022-09-23T20:17:34.046Z,70.63
2022-09-23T20:19:35.342Z,69.49
2022-09-23T20:21:36.594Z,70.72
2022-09-23T20:23:37.891Z,70.28
2022-09-23T20:26:05.465Z,70.30
2022-09-23T20:28:06.771Z,70.30
2022-09-23T20:30:08.066Z,70.67
2022-09-23T20:32:10.155Z,71.21
2022-09-23T20:34:12.375Z,71.51
2022-09-23T20:36:13.722Z,70.88
2022-09-23T20:38:15.512Z,70.71
2022-09-23T20:40:17.194Z,70.99
2022-09-23T20:42:18.520Z,71.25
2022-09-23T20:44:19.845Z,70.51
2022-09-23T20:46:23.435Z,70.37
2022-09-23T20:48:24.829Z,70.88
2022-09-23T20:50:26.340Z,70.90
2022-09-23T20:52:27.711Z,69.98
2022-09-23T20:54:30.942Z,69.33
2022-09-23T20:56:32.254Z,70.62
2022-09-23T20:58:36.595Z,66.42
2022-09-23T21:00:37.898Z,68.52
2022-09-23T21:02:39.268Z,70.30
2022-09-23T21:04:40.590Z,70.66
2022-09-23T21:06:41.903Z,70.62
2022-09-23T21:08:44.395Z,70.57
2022-09-23T21:10:46.271Z,70.54
2022-09-23T21:12:50.042Z,70.65
2022-09-23T21:14:51.575Z,70.35
2022-09-23T21:16:54.815Z,70.36
2022-09-23T21:18:56.119Z,70.62
2022-09-23T21:20:57.495Z,70.39
2022-09-23T21:22:58.855Z,70.42
2022-09-23T21:25:30.845Z,69.81
2022-09-23T21:27:22.813Z,69.98
2022-09-23T21:29:24.213Z,70.89
2022-09-23T21:31:26.028Z,70.32
2022-09-23T21:33:27.580Z,69.95
2022-09-23T21:35:28.909Z,70.52
2022-09-23T21:37:30.447Z,71.00
2022-09-23T21:39:31.767Z,70.69
2022-09-23T21:41:33.044Z,70.34
2022-09-23T21:43:34.520Z,70.22
2022-09-23T21:45:35.824Z,70.53
2022-09-23T21:47:37.093Z,70.77
2022-09-23T21:49:38.395Z,71.31
2022-09-23T21:51:42.960Z,71.41
2022-09-23T21:53:44.755Z,71.58
2022-09-23T21:55:48.846Z,71.48
2022-09-23T21:57:51.594Z,71.29
2022-09-23T21:59:54.159Z,72.13
2022-09-23T22:01:55.442Z,69.90
2022-09-23T22:03:56.867Z,69.49
2022-09-23T22:05:58.186Z,69.50
2022-09-23T22:07:59.505Z,69.80
2022-09-23T22:10:00.800Z,69.24
2022-09-23T22:12:09.879Z,69.49
2022-09-23T22:14:11.336Z,69.34
2022-09-23T22:16:16.728Z,69.25
2022-09-23T22:18:19.366Z,69.30
2022-09-23T22:20:20.928Z,69.72
2022-09-23T22:22:22.202Z,70.53
2022-09-23T22:24:23.978Z,70.08
2022-09-23T22:26:25.309Z,70.14
2022-09-23T22:28:45.541Z,69.90
2022-09-23T22:31:05.330Z,69.60
2022-09-23T22:33:07.024Z,71.39
2022-09-23T22:35:08.327Z,67.16
2022-09-23T22:37:09.636Z,68.84
2022-09-23T22:39:10.946Z,69.90
2022-09-23T22:41:13.355Z,70.12
2022-09-23T22:43:14.787Z,70.57
2022-09-23T22:45:16.139Z,70.65
2022-09-23T22:47:20.428Z,71.23
2022-09-23T22:49:21.720Z,71.60
2022-09-23T22:51:23.064Z,71.93
2022-09-23T22:53:24.359Z,72.05
2022-09-23T22:55:25.634Z,72.63
2022-09-23T22:57:26.907Z,72.77
2022-09-23T22:59:28.396Z,72.82
2022-09-23T23:01:30.557Z,72.87
2022-09-23T23:03:35.283Z,73.26
2022-09-23T23:05:36.590Z,73.50
2022-09-23T23:07:37.877Z,73.64
2022-09-23T23:09:39.214Z,73.70
2022-09-23T23:11:42.151Z,73.93
2022-09-23T23:13:43.463Z,74.03
2022-09-23T23:15:44.871Z,73.96
2022-09-23T23:17:46.196Z,74.06
2022-09-23T23:19:47.644Z,74.30
2022-09-23T23:21:49.073Z,73.96
2022-09-23T23:23:50.423Z,74.41
2022-09-23T23:25:51.720Z,73.92
2022-09-23T23:27:53.002Z,74.39
2022-09-23T23:29:54.490Z,74.43
2022-09-23T23:31:55.872Z,74.40
2022-09-23T23:33:57.192Z,74.41
2022-09-23T23:35:58.480Z,74.72
2022-09-23T23:37:59.755Z,74.69
2022-09-23T23:40:01.082Z,74.84
2022-09-23T23:42:04.178Z,74.90
2022-09-23T23:44:05.601Z,75.33
2022-09-23T23:46:07.583Z,75.17
2022-09-23T23:48:08.927Z,75.43
2022-09-23T23:50:10.926Z,75.35
2022-09-23T23:52:12.380Z,75.61
2022-09-23T23:54:15.101Z,75.52
2022-09-23T23:56:16.451Z,75.88
2022-09-23T23:58:18.049Z,75.64
